Culdrose, United Kingdom

1:25 PM GMT on February 13, 2016 (GMT +0000)
Brill | | Change Station
CLOSE
Current Station
Personal Weather Station
Location: Brill, ENGLAND
Elevation: 420 ft
Nearby Weather Stations

Elev 420 ft 50.12 °N, 5.19 °W | Updated 30 seconds ago

Scattered Clouds
Scattered Clouds
45.0 °F
Feels Like 44 °F
N
3.4
Wind Variable Wind from NNE
Gusts 4.9 mph

Today
High -- | Low -- °F
--% Chance of Precip.
Yesterday
High -- | Low -- °F
Precip. -- in
Pressure 29.15 in
Visibility 6.2 miles
Clouds Few 700 ft
Scattered Clouds 1200 ft
Windchill 44 °F
Dew Point 41 °F
Humidity 86%
Rainfall 0.00 in
Snow Depth Not available.
7:36 AM 5:34 PM
Waxing Crescent, 30% visible
METAR EGHE 131320Z 31013KT 9999 VCSH FEW007 SCT012 09/07 Q0987
Pressure 29.15 in
Visibility 6.2 miles
Clouds Few 700 ft
Scattered Clouds 1200 ft
Windchill 44 °F
Dew Point 41 °F
Humidity 86%
Rainfall 0.00 in
Snow Depth Not available.
7:36 AM 5:34 PM
Waxing Crescent, 30% visible
METAR EGHE 131320Z 31013KT 9999 VCSH FEW007 SCT012 09/07 Q0987

10-Day Weather Forecast

Almanac

Astronomy

Feb. 13, 2016 Rise Set
Actual Time
Civil Twilight
Nautical Twilight
Astronomical Twilight
Moon
Length of Visible Light
Length of Day
Tomorrow will be .
, % of the Moon is Illuminated

Today's Extremes

Country Highs Country Lows

Community

WunderPhotos

Upload Photos

1,892,547 photos uploaded!

WunderBlog® & News

Nearby

Air Quality

  Air Quality AQ Index Pollutant
Not available.

Snow Depth

Station Depth Elevation

Earthquake Activity

City Distance Mag. Time & Date
Minimum magnitude displayed is 2.5.

Coastal Water Temperatures

Place Temperature

Stations

Nearby Weather Stations

Station Location Temp. Windchill Dew Point Humidity Wind Precip. Elev Updated Type